sensor_id;sensor_type;location;lat;lon;timestamp;pressure;altitude;pressure_sealevel;temperature;humidity
39455;BME280;25155;41.890;23.446;2023-05-14T00:00:40;92410.09;;;14.50;62.35
39455;BME280;25155;41.890;23.446;2023-05-14T00:03:07;92413.75;;;14.49;62.29
39455;BME280;25155;41.890;23.446;2023-05-14T00:05:34;92400.91;;;14.48;62.87
39455;BME280;25155;41.890;23.446;2023-05-14T00:08:01;92395.19;;;14.40;64.13
39455;BME280;25155;41.890;23.446;2023-05-14T00:10:29;92396.28;;;14.34;63.74
39455;BME280;25155;41.890;23.446;2023-05-14T00:12:56;92401.81;;;14.33;63.82
39455;BME280;25155;41.890;23.446;2023-05-14T00:15:23;92399.19;;;14.33;63.46
39455;BME280;25155;41.890;23.446;2023-05-14T00:17:50;92402.88;;;14.32;63.76
39455;BME280;25155;41.890;23.446;2023-05-14T00:20:16;92393.16;;;14.32;63.59
39455;BME280;25155;41.890;23.446;2023-05-14T00:22:43;92387.91;;;14.32;63.35
39455;BME280;25155;41.890;23.446;2023-05-14T00:25:10;92387.13;;;14.32;63.76
39455;BME280;25155;41.890;23.446;2023-05-14T00:27:38;92388.19;;;14.31;63.65
39455;BME280;25155;41.890;23.446;2023-05-14T00:30:05;92397.09;;;14.30;63.64
39455;BME280;25155;41.890;23.446;2023-05-14T00:32:32;92396.59;;;14.28;64.32
39455;BME280;25155;41.890;23.446;2023-05-14T00:34:59;92391.34;;;14.28;63.93
39455;BME280;25155;41.890;23.446;2023-05-14T00:37:27;92374.84;;;14.27;64.02
39455;BME280;25155;41.890;23.446;2023-05-14T00:39:54;92369.84;;;14.26;64.38
39455;BME280;25155;41.890;23.446;2023-05-14T00:42:20;92374.59;;;14.24;64.80
39455;BME280;25155;41.890;23.446;2023-05-14T00:44:49;92375.66;;;14.23;64.55
39455;BME280;25155;41.890;23.446;2023-05-14T00:47:15;92379.31;;;14.21;64.57
39455;BME280;25155;41.890;23.446;2023-05-14T00:49:42;92376.69;;;14.21;64.60
39455;BME280;25155;41.890;23.446;2023-05-14T00:52:09;92374.91;;;14.17;64.69
39455;BME280;25155;41.890;23.446;2023-05-14T00:54:36;92367.84;;;14.12;64.71
39455;BME280;25155;41.890;23.446;2023-05-14T00:57:03;92371.53;;;14.11;64.74
39455;BME280;25155;41.890;23.446;2023-05-14T00:59:31;92365.28;;;14.07;65.02
39455;BME280;25155;41.890;23.446;2023-05-14T01:02:00;92359.75;;;14.09;64.76
39455;BME280;25155;41.890;23.446;2023-05-14T01:04:27;92362.91;;;14.06;65.22
39455;BME280;25155;41.890;23.446;2023-05-14T01:06:56;92360.34;;;14.00;65.24
39455;BME280;25155;41.890;23.446;2023-05-14T01:09:28;92360.38;;;13.95;65.49
39455;BME280;25155;41.890;23.446;2023-05-14T01:11:59;92365.09;;;13.93;65.87
39455;BME280;25155;41.890;23.446;2023-05-14T01:14:31;92366.44;;;13.91;66.12
39455;BME280;25155;41.890;23.446;2023-05-14T01:17:01;92358.84;;;13.89;66.74
39455;BME280;25155;41.890;23.446;2023-05-14T01:19:32;92373.78;;;13.89;66.37
39455;BME280;25155;41.890;23.446;2023-05-14T01:22:02;92375.88;;;13.87;66.73
39455;BME280;25155;41.890;23.446;2023-05-14T01:24:29;92379.84;;;13.84;66.88
39455;BME280;25155;41.890;23.446;2023-05-14T01:26:56;92368.31;;;13.80;67.20
39455;BME280;25155;41.890;23.446;2023-05-14T01:29:25;92375.72;;;13.73;67.37
39455;BME280;25155;41.890;23.446;2023-05-14T01:31:54;92374.69;;;13.63;67.91
39455;BME280;25155;41.890;23.446;2023-05-14T01:34:23;92380.75;;;13.59;68.04
39455;BME280;25155;41.890;23.446;2023-05-14T01:36:50;92384.44;;;13.58;68.47
39455;BME280;25155;41.890;23.446;2023-05-14T01:39:19;92379.19;;;13.58;68.54
39455;BME280;25155;41.890;23.446;2023-05-14T01:41:45;92381.81;;;13.58;68.46
39455;BME280;25155;41.890;23.446;2023-05-14T01:44:12;92378.41;;;13.57;69.02
39455;BME280;25155;41.890;23.446;2023-05-14T01:46:40;92380.75;;;13.59;68.73
39455;BME280;25155;41.890;23.446;2023-05-14T01:49:07;92373.41;;;13.61;68.73
39455;BME280;25155;41.890;23.446;2023-05-14T01:51:33;92372.88;;;13.64;68.78
39455;BME280;25155;41.890;23.446;2023-05-14T01:54:00;92372.06;;;13.63;68.66
39455;BME280;25155;41.890;23.446;2023-05-14T01:56:40;92374.69;;;13.63;68.50
39455;BME280;25155;41.890;23.446;2023-05-14T01:59:07;92370.25;;;13.64;68.59
39455;BME280;25155;41.890;23.446;2023-05-14T02:01:34;92375.75;;;13.62;68.86
39455;BME280;25155;41.890;23.446;2023-05-14T02:04:01;92376.53;;;13.63;69.00
39455;BME280;25155;41.890;23.446;2023-05-14T02:06:27;92377.59;;;13.62;68.79
39455;BME280;25155;41.890;23.446;2023-05-14T02:08:55;92373.94;;;13.58;69.00
39455;BME280;25155;41.890;23.446;2023-05-14T02:11:22;92371.59;;;13.56;69.14
39455;BME280;25155;41.890;23.446;2023-05-14T02:13:50;92381.56;;;13.54;68.90
39455;BME280;25155;41.890;23.446;2023-05-14T02:16:17;92381.06;;;13.52;68.80
39455;BME280;25155;41.890;23.446;2023-05-14T02:18:44;92384.22;;;13.49;68.78
39455;BME280;25155;41.890;23.446;2023-05-14T02:21:11;92387.13;;;13.42;69.39
39455;BME280;25155;41.890;23.446;2023-05-14T02:23:38;92389.22;;;13.40;70.06
39455;BME280;25155;41.890;23.446;2023-05-14T02:26:04;92383.97;;;13.40;69.70
39455;BME280;25155;41.890;23.446;2023-05-14T02:28:33;92375.34;;;13.40;69.91
39455;BME280;25155;41.890;23.446;2023-05-14T02:31:01;92379.00;;;13.39;69.60
39455;BME280;25155;41.890;23.446;2023-05-14T02:33:27;92375.09;;;13.36;70.01
39455;BME280;25155;41.890;23.446;2023-05-14T02:35:54;92379.28;;;13.37;70.47
39455;BME280;25155;41.890;23.446;2023-05-14T02:38:21;92387.66;;;13.39;69.95
39455;BME280;25155;41.890;23.446;2023-05-14T02:40:48;92390.81;;;13.36;69.91
39455;BME280;25155;41.890;23.446;2023-05-14T02:43:14;92384.25;;;13.34;70.33
39455;BME280;25155;41.890;23.446;2023-05-14T02:45:41;92372.47;;;13.31;70.36
39455;BME280;25155;41.890;23.446;2023-05-14T02:48:09;92367.75;;;13.33;70.46
39455;BME280;25155;41.890;23.446;2023-05-14T02:50:36;92376.13;;;13.35;70.41
39455;BME280;25155;41.890;23.446;2023-05-14T02:53:03;92376.94;;;13.36;70.13
39455;BME280;25155;41.890;23.446;2023-05-14T02:55:30;92368.00;;;13.37;70.25
39455;BME280;25155;41.890;23.446;2023-05-14T02:57:56;92370.91;;;13.35;70.37
39455;BME280;25155;41.890;23.446;2023-05-14T03:00:23;92371.97;;;13.34;70.21
39455;BME280;25155;41.890;23.446;2023-05-14T03:02:50;92378.25;;;13.33;70.36
39455;BME280;25155;41.890;23.446;2023-05-14T03:05:18;92381.91;;;13.32;70.43
39455;BME280;25155;41.890;23.446;2023-05-14T03:07:45;92375.09;;;13.31;70.39
39455;BME280;25155;41.890;23.446;2023-05-14T03:10:12;92369.84;;;13.31;70.05
39455;BME280;25155;41.890;23.446;2023-05-14T03:12:39;92367.22;;;13.31;70.14
39455;BME280;25155;41.890;23.446;2023-05-14T03:15:06;92371.97;;;13.29;70.39
39455;BME280;25155;41.890;23.446;2023-05-14T03:17:33;92373.00;;;13.28;70.90
39455;BME280;25155;41.890;23.446;2023-05-14T03:20:00;92374.31;;;13.25;71.12
39455;BME280;25155;41.890;23.446;2023-05-14T03:22:28;92373.03;;;13.23;71.18
39455;BME280;25155;41.890;23.446;2023-05-14T03:24:55;92370.41;;;13.23;71.38
39455;BME280;25155;41.890;23.446;2023-05-14T03:27:21;92363.59;;;13.22;71.35
39455;BME280;25155;41.890;23.446;2023-05-14T03:29:48;92369.88;;;13.21;71.40
39455;BME280;25155;41.890;23.446;2023-05-14T03:32:16;92374.31;;;13.20;71.10
39455;BME280;25155;41.890;23.446;2023-05-14T03:34:42;92372.78;;;13.19;70.90
39455;BME280;25155;41.890;23.446;2023-05-14T03:37:10;92392.91;;;13.19;70.95
39455;BME280;25155;41.890;23.446;2023-05-14T03:39:38;92392.94;;;13.14;71.06
39455;BME280;25155;41.890;23.446;2023-05-14T03:42:05;92375.69;;;13.07;71.16
39455;BME280;25155;41.890;23.446;2023-05-14T03:44:32;92374.13;;;13.06;71.29
39455;BME280;25155;41.890;23.446;2023-05-14T03:46:58;92380.41;;;13.05;71.60
39455;BME280;25155;41.890;23.446;2023-05-14T03:49:25;92383.00;;;13.05;71.65
39455;BME280;25155;41.890;23.446;2023-05-14T03:51:52;92383.00;;;13.05;71.18
39455;BME280;25155;41.890;23.446;2023-05-14T03:54:19;92393.50;;;13.05;71.41
39455;BME280;25155;41.890;23.446;2023-05-14T03:56:47;92390.88;;;13.05;71.49
39455;BME280;25155;41.890;23.446;2023-05-14T03:59:14;92393.75;;;13.04;71.75
39455;BME280;25155;41.890;23.446;2023-05-14T04:01:40;92402.41;;;13.04;71.59
39455;BME280;25155;41.890;23.446;2023-05-14T04:04:07;92402.41;;;13.04;71.64
39455;BME280;25155;41.890;23.446;2023-05-14T04:06:34;92395.59;;;13.03;72.02
39455;BME280;25155;41.890;23.446;2023-05-14T04:09:01;92397.69;;;13.01;72.15
39455;BME280;25155;41.890;23.446;2023-05-14T04:11:28;92399.81;;;12.99;72.57
39455;BME280;25155;41.890;23.446;2023-05-14T04:13:56;92404.25;;;12.99;72.31
39455;BME280;25155;41.890;23.446;2023-05-14T04:16:23;92409.47;;;12.99;72.17
39455;BME280;25155;41.890;23.446;2023-05-14T04:18:50;92414.44;;;13.00;72.37
39455;BME280;25155;41.890;23.446;2023-05-14T04:21:17;92414.97;;;13.02;72.48
39455;BME280;25155;41.890;23.446;2023-05-14T04:23:43;92423.88;;;13.01;72.43
39455;BME280;25155;41.890;23.446;2023-05-14T04:26:10;92422.81;;;13.02;72.11
39455;BME280;25155;41.890;23.446;2023-05-14T04:28:37;92420.19;;;13.02;72.13
39455;BME280;25155;41.890;23.446;2023-05-14T04:31:06;92421.00;;;13.03;72.20
39455;BME280;25155;41.890;23.446;2023-05-14T04:33:33;92417.84;;;13.01;72.76
39455;BME280;25155;41.890;23.446;2023-05-14T04:35:59;92423.88;;;13.01;72.67
39455;BME280;25155;41.890;23.446;2023-05-14T04:38:26;92426.50;;;13.01;72.92
39455;BME280;25155;41.890;23.446;2023-05-14T04:40:53;92428.31;;;13.01;72.42
39455;BME280;25155;41.890;23.446;2023-05-14T04:43:20;92438.53;;;12.97;72.52
39455;BME280;25155;41.890;23.446;2023-05-14T04:45:46;92428.09;;;12.92;72.94
39455;BME280;25155;41.890;23.446;2023-05-14T04:48:15;92424.69;;;12.91;72.80
39455;BME280;25155;41.890;23.446;2023-05-14T04:50:41;92428.09;;;12.92;73.08
39455;BME280;25155;41.890;23.446;2023-05-14T04:53:08;92415.78;;;12.92;72.81
39455;BME280;25155;41.890;23.446;2023-05-14T04:55:35;92418.69;;;12.91;73.04
39455;BME280;25155;41.890;23.446;2023-05-14T04:58:02;92426.53;;;12.91;72.85
39455;BME280;25155;41.890;23.446;2023-05-14T05:00:29;92433.56;;;12.90;72.74
39455;BME280;25155;41.890;23.446;2023-05-14T05:02:57;92440.16;;;12.88;73.16
39455;BME280;25155;41.890;23.446;2023-05-14T05:05:25;92442.22;;;12.86;73.09
39455;BME280;25155;41.890;23.446;2023-05-14T05:07:52;92442.22;;;12.86;73.41
39455;BME280;25155;41.890;23.446;2023-05-14T05:10:19;92455.03;;;12.87;73.39
39455;BME280;25155;41.890;23.446;2023-05-14T05:12:46;92452.16;;;12.89;73.03
39455;BME280;25155;41.890;23.446;2023-05-14T05:15:13;92446.66;;;12.90;72.92
39455;BME280;25155;41.890;23.446;2023-05-14T05:17:40;92449.81;;;12.92;72.87
39455;BME280;25155;41.890;23.446;2023-05-14T05:20:07;92450.88;;;12.91;73.37
39455;BME280;25155;41.890;23.446;2023-05-14T05:22:36;92464.72;;;12.92;72.87
39455;BME280;25155;41.890;23.446;2023-05-14T05:25:03;92465.81;;;12.91;72.88
39455;BME280;25155;41.890;23.446;2023-05-14T05:27:30;92473.09;;;12.89;73.07
39455;BME280;25155;41.890;23.446;2023-05-14T05:29:57;92474.44;;;12.86;73.38
39455;BME280;25155;41.890;23.446;2023-05-14T05:32:24;92474.69;;;12.85;73.57
39455;BME280;25155;41.890;23.446;2023-05-14T05:34:51;92483.59;;;12.84;74.00
39455;BME280;25155;41.890;23.446;2023-05-14T05:37:18;92488.31;;;12.82;74.56
39455;BME280;25155;41.890;23.446;2023-05-14T05:39:46;92485.94;;;12.80;74.46
39455;BME280;25155;41.890;23.446;2023-05-14T05:42:13;92488.31;;;12.82;74.63
39455;BME280;25155;41.890;23.446;2023-05-14T05:44:39;92498.78;;;12.82;74.56
39455;BME280;25155;41.890;23.446;2023-05-14T05:47:06;92496.94;;;12.82;74.25
39455;BME280;25155;41.890;23.446;2023-05-14T05:49:33;92495.13;;;12.83;74.32
39455;BME280;25155;41.890;23.446;2023-05-14T05:52:01;92506.88;;;12.85;74.18
39455;BME280;25155;41.890;23.446;2023-05-14T05:54:29;92506.88;;;12.85;74.34
39455;BME280;25155;41.890;23.446;2023-05-14T05:56:58;92516.59;;;12.85;73.86
39455;BME280;25155;41.890;23.446;2023-05-14T05:59:25;92520.22;;;12.84;74.04
39455;BME280;25155;41.890;23.446;2023-05-14T06:01:52;92516.84;;;12.83;73.94
39455;BME280;25155;41.890;23.446;2023-05-14T06:04:18;92519.97;;;12.80;74.05
39455;BME280;25155;41.890;23.446;2023-05-14T06:06:45;92519.47;;;12.78;74.46
39455;BME280;25155;41.890;23.446;2023-05-14T06:09:12;92505.31;;;12.79;74.06
39455;BME280;25155;41.890;23.446;2023-05-14T06:11:39;92500.63;;;12.81;74.39
39455;BME280;25155;41.890;23.446;2023-05-14T06:14:07;92498.78;;;12.82;74.38
39455;BME280;25155;41.890;23.446;2023-05-14T06:16:34;92497.75;;;12.83;74.49
39455;BME280;25155;41.890;23.446;2023-05-14T06:19:01;92493.03;;;12.85;74.58
39455;BME280;25155;41.890;23.446;2023-05-14T06:21:27;92504.00;;;12.87;74.46
39455;BME280;25155;41.890;23.446;2023-05-14T06:23:54;92506.63;;;12.87;74.64
39455;BME280;25155;41.890;23.446;2023-05-14T06:26:21;92511.84;;;12.87;74.60
39455;BME280;25155;41.890;23.446;2023-05-14T06:28:48;92516.84;;;12.83;75.37
39455;BME280;25155;41.890;23.446;2023-05-14T06:31:16;92516.06;;;12.83;75.07
39455;BME280;25155;41.890;23.446;2023-05-14T06:33:43;92511.09;;;12.76;76.12
39455;BME280;25155;41.890;23.446;2023-05-14T06:36:10;92504.00;;;12.71;76.21
39455;BME280;25155;41.890;23.446;2023-05-14T06:38:36;92497.47;;;12.69;76.21
39455;BME280;25155;41.890;23.446;2023-05-14T06:41:03;92499.28;;;12.68;75.93
39455;BME280;25155;41.890;23.446;2023-05-14T06:43:30;92506.13;;;12.69;75.88
39455;BME280;25155;41.890;23.446;2023-05-14T06:45:57;92507.41;;;12.72;76.03
39455;BME280;25155;41.890;23.446;2023-05-14T06:48:25;92502.44;;;12.76;75.78
39455;BME280;25155;41.890;23.446;2023-05-14T06:50:53;92497.75;;;12.78;75.86
39455;BME280;25155;41.890;23.446;2023-05-14T06:53:20;92497.19;;;12.81;75.75
39455;BME280;25155;41.890;23.446;2023-05-14T06:55:47;92485.44;;;12.83;75.83
39455;BME280;25155;41.890;23.446;2023-05-14T06:58:14;92490.13;;;12.86;75.30
39455;BME280;25155;41.890;23.446;2023-05-14T07:00:41;92493.28;;;12.88;75.20
39455;BME280;25155;41.890;23.446;2023-05-14T07:03:08;92485.44;;;12.88;75.28
39455;BME280;25155;41.890;23.446;2023-05-14T07:05:36;92475.22;;;12.87;74.81
39455;BME280;25155;41.890;23.446;2023-05-14T07:08:05;92456.88;;;12.87;74.84
39455;BME280;25155;41.890;23.446;2023-05-14T07:10:31;92461.09;;;12.88;74.87
39455;BME280;25155;41.890;23.446;2023-05-14T07:12:58;92465.25;;;12.89;75.00
39455;BME280;25155;41.890;23.446;2023-05-14T07:15:25;92469.44;;;12.90;75.04
39455;BME280;25155;41.890;23.446;2023-05-14T07:17:52;92467.63;;;12.90;75.94
39455;BME280;25155;41.890;23.446;2023-05-14T07:20:18;92460.53;;;12.86;75.59
39455;BME280;25155;41.890;23.446;2023-05-14T07:22:47;92460.84;;;12.84;75.72
39455;BME280;25155;41.890;23.446;2023-05-14T07:25:17;92456.13;;;12.81;76.41
39455;BME280;25155;41.890;23.446;2023-05-14T07:27:44;92467.63;;;12.75;76.37
39455;BME280;25155;41.890;23.446;2023-05-14T07:30:12;92482.00;;;12.72;76.71
39455;BME280;25155;41.890;23.446;2023-05-14T07:32:39;92489.59;;;12.74;76.27
39455;BME280;25155;41.890;23.446;2023-05-14T07:35:06;92483.84;;;12.72;75.98
39455;BME280;25155;41.890;23.446;2023-05-14T07:37:32;92488.06;;;12.73;75.87
39455;BME280;25155;41.890;23.446;2023-05-14T07:40:01;92505.56;;;12.72;76.08
39455;BME280;25155;41.890;23.446;2023-05-14T07:42:28;92513.16;;;12.74;75.94
39455;BME280;25155;41.890;23.446;2023-05-14T07:44:54;92509.50;;;12.75;75.67
39455;BME280;25155;41.890;23.446;2023-05-14T07:47:21;92507.41;;;12.77;75.81
39455;BME280;25155;41.890;23.446;2023-05-14T07:49:48;92500.38;;;12.78;75.89
39455;BME280;25155;41.890;23.446;2023-05-14T07:52:15;92500.88;;;12.80;76.02
39455;BME280;25155;41.890;23.446;2023-05-14T07:54:41;92512.13;;;12.80;75.67
39455;BME280;25155;41.890;23.446;2023-05-14T07:57:10;92514.47;;;12.82;75.60
39455;BME280;25155;41.890;23.446;2023-05-14T07:59:36;92497.19;;;12.81;75.77
39455;BME280;25155;41.890;23.446;2023-05-14T08:02:03;92495.13;;;12.83;75.71
39455;BME280;25155;41.890;23.446;2023-05-14T08:04:30;92488.31;;;12.82;76.05
39455;BME280;25155;41.890;23.446;2023-05-14T08:06:57;92502.97;;;12.83;76.02
39455;BME280;25155;41.890;23.446;2023-05-14T08:09:24;92501.91;;;12.84;75.58
39455;BME280;25155;41.890;23.446;2023-05-14T08:11:50;92500.88;;;12.85;75.28
39455;BME280;25155;41.890;23.446;2023-05-14T08:14:19;92505.59;;;12.83;75.25
39455;BME280;25155;41.890;23.446;2023-05-14T08:16:46;92493.28;;;12.78;75.50
39455;BME280;25155;41.890;23.446;2023-05-14T08:19:14;92487.53;;;12.76;75.53
39455;BME280;25155;41.890;23.446;2023-05-14T08:21:42;92501.41;;;12.77;75.59
39455;BME280;25155;41.890;23.446;2023-05-14T08:24:08;92502.16;;;12.77;75.57
39455;BME280;25155;41.890;23.446;2023-05-14T08:26:35;92496.16;;;12.77;75.43
39455;BME280;25155;41.890;23.446;2023-05-14T08:29:03;92508.22;;;12.78;75.38
39455;BME280;25155;41.890;23.446;2023-05-14T08:31:31;92498.78;;;12.77;75.38
39455;BME280;25155;41.890;23.446;2023-05-14T08:33:58;92504.53;;;12.79;75.39
39455;BME280;25155;41.890;23.446;2023-05-14T08:36:24;92492.22;;;12.79;75.30
39455;BME280;25155;41.890;23.446;2023-05-14T08:38:51;92495.66;;;12.74;76.05
39455;BME280;25155;41.890;23.446;2023-05-14T08:41:18;92502.69;;;12.74;75.96
39455;BME280;25155;41.890;23.446;2023-05-14T08:43:49;92496.69;;;12.73;75.73
39455;BME280;25155;41.890;23.446;2023-05-14T08:46:22;92493.03;;;12.74;76.05
39455;BME280;25155;41.890;23.446;2023-05-14T08:48:51;92489.88;;;12.78;76.41
39455;BME280;25155;41.890;23.446;2023-05-14T08:51:22;92489.34;;;12.81;76.48
39455;BME280;25155;41.890;23.446;2023-05-14T08:53:49;92495.13;;;12.83;76.39
39455;BME280;25155;41.890;23.446;2023-05-14T08:56:16;92491.44;;;12.84;76.32
39455;BME280;25155;41.890;23.446;2023-05-14T08:58:43;92496.69;;;12.84;76.88
39455;BME280;25155;41.890;23.446;2023-05-14T09:01:10;92493.53;;;12.82;76.49
39455;BME280;25155;41.890;23.446;2023-05-14T09:03:37;92490.66;;;12.83;76.57
39455;BME280;25155;41.890;23.446;2023-05-14T09:06:06;92478.34;;;12.84;76.70
39455;BME280;25155;41.890;23.446;2023-05-14T09:08:33;92489.34;;;12.86;76.85
39455;BME280;25155;41.890;23.446;2023-05-14T09:11:00;92492.50;;;12.88;76.97
39455;BME280;25155;41.890;23.446;2023-05-14T09:13:27;92492.50;;;12.88;76.54
39455;BME280;25155;41.890;23.446;2023-05-14T09:15:54;92484.09;;;12.86;77.39
39455;BME280;25155;41.890;23.446;2023-05-14T09:18:21;92482.28;;;12.86;77.20
39455;BME280;25155;41.890;23.446;2023-05-14T09:20:48;92477.31;;;12.85;77.16
39455;BME280;25155;41.890;23.446;2023-05-14T09:23:17;92485.16;;;12.85;77.21
39455;BME280;25155;41.890;23.446;2023-05-14T09:25:44;92491.69;;;12.87;77.25
39455;BME280;25155;41.890;23.446;2023-05-14T09:28:15;92490.41;;;12.90;76.93
39455;BME280;25155;41.890;23.446;2023-05-14T09:30:45;92489.38;;;12.91;76.77
39455;BME280;25155;41.890;23.446;2023-05-14T09:33:12;92480.44;;;12.92;77.00
39455;BME280;25155;41.890;23.446;2023-05-14T09:35:50;92497.75;;;12.88;76.71
39455;BME280;25155;41.890;23.446;2023-05-14T09:38:19;92481.22;;;12.82;77.26
39455;BME280;25155;41.890;23.446;2023-05-14T09:40:45;92488.81;;;12.79;77.71
39455;BME280;25155;41.890;23.446;2023-05-14T09:43:12;92485.44;;;12.78;77.45
39455;BME280;25155;41.890;23.446;2023-05-14T09:45:39;92484.91;;;12.81;77.52
39455;BME280;25155;41.890;23.446;2023-05-14T09:48:07;92474.44;;;12.81;77.91
39455;BME280;25155;41.890;23.446;2023-05-14T09:50:36;92468.13;;;12.82;78.02
39455;BME280;25155;41.890;23.446;2023-05-14T09:53:06;92474.69;;;12.85;77.62
39455;BME280;25155;41.890;23.446;2023-05-14T09:55:36;92470.75;;;12.87;78.10
39455;BME280;25155;41.890;23.446;2023-05-14T09:58:03;92470.22;;;12.90;78.06
39455;BME280;25155;41.890;23.446;2023-05-14T10:00:30;92474.94;;;12.93;78.28
39455;BME280;25155;41.890;23.446;2023-05-14T10:02:58;92472.56;;;12.97;78.45
39455;BME280;25155;41.890;23.446;2023-05-14T10:05:24;92474.41;;;12.97;78.13
39455;BME280;25155;41.890;23.446;2023-05-14T10:07:53;92476.00;;;12.98;77.92
39455;BME280;25155;41.890;23.446;2023-05-14T10:10:20;92473.66;;;12.96;77.69
39455;BME280;25155;41.890;23.446;2023-05-14T10:12:52;92460.28;;;12.98;78.20
39455;BME280;25155;41.890;23.446;2023-05-14T10:15:20;92462.66;;;12.99;78.23
39455;BME280;25155;41.890;23.446;2023-05-14T10:17:51;92459.47;;;13.02;77.77
39455;BME280;25155;41.890;23.446;2023-05-14T10:20:20;92456.34;;;13.05;77.75
39455;BME280;25155;41.890;23.446;2023-05-14T10:22:48;92455.28;;;13.06;78.02
39455;BME280;25155;41.890;23.446;2023-05-14T10:25:15;92453.44;;;13.07;77.71
39455;BME280;25155;41.890;23.446;2023-05-14T10:27:42;92447.69;;;13.10;77.96
39455;BME280;25155;41.890;23.446;2023-05-14T10:30:11;92440.88;;;13.14;77.74
39455;BME280;25155;41.890;23.446;2023-05-14T10:32:38;92433.81;;;13.15;77.57
39455;BME280;25155;41.890;23.446;2023-05-14T10:35:15;92443.50;;;13.19;77.83
39455;BME280;25155;41.890;23.446;2023-05-14T10:37:43;92440.59;;;13.26;77.87
39455;BME280;25155;41.890;23.446;2023-05-14T10:40:11;92442.97;;;13.33;77.58
39455;BME280;25155;41.890;23.446;2023-05-14T10:42:38;92433.25;;;13.38;77.87
39455;BME280;25155;41.890;23.446;2023-05-14T10:45:08;92429.06;;;13.42;77.69
39455;BME280;25155;41.890;23.446;2023-05-14T10:47:37;92427.19;;;13.48;78.16
39455;BME280;25155;41.890;23.446;2023-05-14T10:50:05;92423.22;;;13.56;78.34
39455;BME280;25155;41.890;23.446;2023-05-14T10:52:32;92423.19;;;13.66;78.39
39455;BME280;25155;41.890;23.446;2023-05-14T10:55:00;92423.66;;;13.73;78.43
39455;BME280;25155;41.890;23.446;2023-05-14T10:57:27;92421.00;;;13.78;78.10
39455;BME280;25155;41.890;23.446;2023-05-14T10:59:55;92411.03;;;13.86;77.53
39455;BME280;25155;41.890;23.446;2023-05-14T11:02:25;92415.19;;;13.92;76.74
39455;BME280;25155;41.890;23.446;2023-05-14T11:04:57;92421.97;;;13.98;77.18
39455;BME280;25155;41.890;23.446;2023-05-14T11:07:28;92423.00;;;14.02;76.53
39455;BME280;25155;41.890;23.446;2023-05-14T11:09:59;92424.56;;;14.03;75.84
39455;BME280;25155;41.890;23.446;2023-05-14T11:12:27;92415.66;;;14.04;75.53
39455;BME280;25155;41.890;23.446;2023-05-14T11:14:55;92419.84;;;14.05;75.41
39455;BME280;25155;41.890;23.446;2023-05-14T11:17:23;92420.34;;;14.07;75.61
39455;BME280;25155;41.890;23.446;2023-05-14T11:19:50;92429.22;;;14.11;75.60
39455;BME280;25155;41.890;23.446;2023-05-14T11:22:18;92430.81;;;14.12;75.46
39455;BME280;25155;41.890;23.446;2023-05-14T11:24:45;92431.81;;;14.16;75.14
39455;BME280;25155;41.890;23.446;2023-05-14T11:27:12;92432.09;;;14.20;74.74
39455;BME280;25155;41.890;23.446;2023-05-14T11:29:39;92432.31;;;14.24;74.75
39455;BME280;25155;41.890;23.446;2023-05-14T11:32:09;92444.63;;;14.28;74.52
39455;BME280;25155;41.890;23.446;2023-05-14T11:34:36;92443.81;;;14.28;74.01
39455;BME280;25155;41.890;23.446;2023-05-14T11:37:03;92434.91;;;14.29;73.96
39455;BME280;25155;41.890;23.446;2023-05-14T11:39:32;92434.38;;;14.32;74.38
39455;BME280;25155;41.890;23.446;2023-05-14T11:42:01;92434.38;;;14.32;73.51
39455;BME280;25155;41.890;23.446;2023-05-14T11:44:28;92427.03;;;14.29;71.93
39455;BME280;25155;41.890;23.446;2023-05-14T11:46:55;92430.44;;;14.29;71.59
39455;BME280;25155;41.890;23.446;2023-05-14T11:49:22;92425.97;;;14.30;71.49
39455;BME280;25155;41.890;23.446;2023-05-14T11:51:49;92427.56;;;14.26;69.52
39455;BME280;25155;41.890;23.446;2023-05-14T11:54:17;92423.13;;;14.21;68.93
39455;BME280;25155;41.890;23.446;2023-05-14T11:56:49;92435.75;;;14.19;68.74
39455;BME280;25155;41.890;23.446;2023-05-14T11:59:16;92434.44;;;14.16;67.05
39455;BME280;25155;41.890;23.446;2023-05-14T12:01:43;92422.41;;;14.15;67.41
39455;BME280;25155;41.890;23.446;2023-05-14T12:04:11;92424.53;;;14.13;66.94
39455;BME280;25155;41.890;23.446;2023-05-14T12:06:38;92415.31;;;14.16;67.33
39455;BME280;25155;41.890;23.446;2023-05-14T12:09:05;92419.75;;;14.20;68.23
39455;BME280;25155;41.890;23.446;2023-05-14T12:11:32;92415.75;;;14.28;68.58
39455;BME280;25155;41.890;23.446;2023-05-14T12:14:00;92414.69;;;14.29;68.79
39455;BME280;25155;41.890;23.446;2023-05-14T12:16:28;92410.75;;;14.32;68.52
39455;BME280;25155;41.890;23.446;2023-05-14T12:18:58;92409.13;;;14.36;68.67
39455;BME280;25155;41.890;23.446;2023-05-14T12:21:25;92415.16;;;14.36;68.04
39455;BME280;25155;41.890;23.446;2023-05-14T12:23:55;92413.06;;;14.38;68.64
39455;BME280;25155;41.890;23.446;2023-05-14T12:26:22;92398.59;;;14.41;68.69
39455;BME280;25155;41.890;23.446;2023-05-14T12:28:55;92408.03;;;14.42;69.19
39455;BME280;25155;41.890;23.446;2023-05-14T12:31:27;92405.41;;;14.42;69.03
39455;BME280;25155;41.890;23.446;2023-05-14T12:33:55;92405.41;;;14.42;68.24
39455;BME280;25155;41.890;23.446;2023-05-14T12:36:21;92398.09;;;14.39;68.18
39455;BME280;25155;41.890;23.446;2023-05-14T12:38:48;92392.84;;;14.39;68.28
39455;BME280;25155;41.890;23.446;2023-05-14T12:41:16;92391.28;;;14.38;68.66
39455;BME280;25155;41.890;23.446;2023-05-14T12:43:43;92388.41;;;14.34;69.18
39455;BME280;25155;41.890;23.446;2023-05-14T12:46:10;92383.16;;;14.34;69.25
39455;BME280;25155;41.890;23.446;2023-05-14T12:48:38;92371.63;;;14.35;70.14
39455;BME280;25155;41.890;23.446;2023-05-14T12:51:05;92375.78;;;14.36;70.02